Archival Weather

Yakutsk

Yakutsk, Russia (UEEE)

Report from: Tuesday, June 6, 2023 10:00 PM JST
Current time: Thursday, May 30, 2024 8:24 AM JST

Current weather – Weather history – Daily summaries
Weather forecast

Temperature16.0°C (60.8°F)
Dew point4.0°C (39.2°F)
Winds 7.8 kts (4 m/s, 8.9 mph) North-Northwest (340°)
Clouds Sky clear
Altimeter29.62 in.Hg (1003 mB)
Precip. events QF 12:24 AM
Relative humidity45 %
Density altitude587 ft. (179 m)
Remarks Ceiling and visibility OK
No significant changes expected in the next two hours
Flight conditions Visual Meteorological Conditions
Raw dataUEEE 061300Z 34004MPS CAVOK 16/04 Q1003 R05/09//60 NOSIG RMK QFE744
An error has occurred. This application may no longer respond until reloaded. Reload 🗙